createdAt,value
2018-02-18T00:00:46.066Z,19.07
2018-02-18T00:01:55.322Z,19.19
2018-02-18T00:03:04.341Z,19.1
2018-02-18T00:04:13.362Z,19.06
2018-02-18T00:05:22.604Z,19.07
2018-02-18T00:06:31.845Z,19.11
2018-02-18T00:07:40.816Z,19.02
2018-02-18T00:08:50.353Z,18.99
2018-02-18T00:09:59.319Z,19.06
2018-02-18T00:11:08.589Z,19.07
2018-02-18T00:12:17.559Z,19.08
2018-02-18T00:13:26.854Z,19.08
2018-02-18T00:14:35.550Z,19.08
2018-02-18T00:15:44.596Z,19.11
2018-02-18T00:16:53.559Z,19.06
2018-02-18T00:18:02.803Z,19.11
2018-02-18T00:19:12.050Z,19.04
2018-02-18T00:20:21.375Z,19.07
2018-02-18T00:21:30.410Z,19.06
2018-02-18T00:22:39.957Z,18.98
2018-02-18T00:23:49.191Z,18.99
2018-02-18T00:24:59.219Z,18.98
2018-02-18T00:26:08.213Z,19.06
2018-02-18T00:27:17.051Z,19.04
2018-02-18T00:28:26.653Z,19.04
2018-02-18T00:29:35.625Z,18.99
2018-02-18T00:30:44.614Z,19.04
2018-02-18T00:31:53.851Z,19
2018-02-18T00:33:02.888Z,18.98
2018-02-18T00:34:12.168Z,19
2018-02-18T00:35:20.879Z,18.98
2018-02-18T00:36:29.881Z,19
2018-02-18T00:37:38.839Z,19.04
2018-02-18T00:38:47.827Z,19.06
2018-02-18T00:39:57.061Z,18.99
2018-02-18T00:41:06.640Z,19
2018-02-18T00:42:15.909Z,18.99
2018-02-18T00:43:25.185Z,19.02
2018-02-18T00:44:34.422Z,18.94
2018-02-18T00:45:43.652Z,19.02
2018-02-18T00:46:52.726Z,18.99
2018-02-18T00:48:01.471Z,19
2018-02-18T00:49:10.569Z,18.94
2018-02-18T00:50:19.580Z,18.95
2018-02-18T00:51:28.552Z,18.94
2018-02-18T00:52:38.091Z,18.95
2018-02-18T00:53:47.053Z,18.94
2018-02-18T00:54:56.289Z,18.92
2018-02-18T00:56:04.982Z,18.9
2018-02-18T00:57:14.553Z,18.99
2018-02-18T00:58:23.585Z,18.98
2018-02-18T00:59:32.810Z,18.92
2018-02-18T01:00:41.802Z,18.87
2018-02-18T01:01:51.015Z,18.95
2018-02-18T01:03:01.188Z,18.88
2018-02-18T01:04:09.907Z,18.9
2018-02-18T01:05:19.131Z,18.87
2018-02-18T01:06:28.126Z,18.94
2018-02-18T01:07:37.883Z,18.94
2018-02-18T01:08:47.121Z,18.95
2018-02-18T01:09:56.350Z,18.98
2018-02-18T01:11:05.561Z,18.82
2018-02-18T01:12:14.782Z,18.82
2018-02-18T01:13:24.576Z,18.87
2018-02-18T01:14:33.526Z,18.81
2018-02-18T01:15:42.533Z,18.81
2018-02-18T01:16:51.565Z,18.87
2018-02-18T01:18:00.787Z,18.94
2018-02-18T01:19:10.344Z,18.9
2018-02-18T01:20:19.284Z,18.87
2018-02-18T01:21:28.530Z,18.82
2018-02-18T01:22:37.584Z,18.84
2018-02-18T01:23:46.871Z,18.82
2018-02-18T01:24:55.861Z,18.87
2018-02-18T01:26:04.805Z,18.84
2018-02-18T01:27:13.842Z,18.81
2018-02-18T01:28:23.351Z,18.81
2018-02-18T01:29:32.319Z,18.84
2018-02-18T01:30:41.546Z,18.92
2018-02-18T01:31:50.512Z,18.84
2018-02-18T01:32:59.463Z,18.84
2018-02-18T01:34:08.407Z,18.87
2018-02-18T01:35:17.360Z,18.85
2018-02-18T01:36:26.299Z,18.84
2018-02-18T01:37:35.535Z,18.8
2018-02-18T01:38:44.224Z,18.88
2018-02-18T01:39:53.443Z,18.81
2018-02-18T01:41:02.677Z,18.88
2018-02-18T01:42:11.889Z,18.88
2018-02-18T01:43:20.845Z,18.78
2018-02-18T01:44:30.127Z,18.8
2018-02-18T01:45:39.665Z,18.88
2018-02-18T01:46:48.592Z,18.78
2018-02-18T01:47:57.558Z,18.87
2018-02-18T01:49:06.775Z,18.81
2018-02-18T01:50:15.542Z,18.75
2018-02-18T01:51:25.070Z,18.76
2018-02-18T01:52:33.748Z,18.76
2018-02-18T01:53:42.738Z,18.76
2018-02-18T01:54:52.204Z,18.75
2018-02-18T01:56:01.683Z,18.8
2018-02-18T01:57:10.633Z,18.8
2018-02-18T01:58:19.602Z,18.75
2018-02-18T01:59:28.571Z,18.8
2018-02-18T02:00:37.792Z,18.8
2018-02-18T02:01:46.998Z,18.75
2018-02-18T02:02:58.152Z,18.78
2018-02-18T02:04:07.223Z,18.76
2018-02-18T02:05:16.684Z,18.78
2018-02-18T02:06:25.635Z,18.8
2018-02-18T02:07:35.142Z,18.81
2018-02-18T02:08:44.370Z,18.78
2018-02-18T02:09:53.849Z,18.76
2018-02-18T02:11:02.640Z,18.7
2018-02-18T02:12:11.316Z,18.73
2018-02-18T02:13:20.574Z,18.7
2018-02-18T02:14:29.520Z,18.78
2018-02-18T02:15:38.493Z,18.66
2018-02-18T02:16:47.471Z,18.75
2018-02-18T02:17:56.215Z,18.72
2018-02-18T02:19:05.978Z,18.78
2018-02-18T02:20:15.488Z,18.72
2018-02-18T02:21:24.736Z,18.78
2018-02-18T02:22:33.996Z,18.8
2018-02-18T02:23:42.990Z,18.7
2018-02-18T02:24:51.974Z,18.69
2018-02-18T02:26:01.207Z,18.72
2018-02-18T02:27:10.187Z,18.69
2018-02-18T02:28:19.160Z,18.69
2018-02-18T02:29:28.638Z,18.7
2018-02-18T02:30:37.614Z,18.75
2018-02-18T02:31:47.373Z,18.73
2018-02-18T02:32:56.872Z,18.75
2018-02-18T02:34:05.847Z,18.67
2018-02-18T02:35:15.122Z,18.73
2018-02-18T02:36:24.078Z,18.67
2018-02-18T02:37:33.312Z,18.7
2018-02-18T02:38:42.863Z,18.67
2018-02-18T02:39:52.082Z,18.69
2018-02-18T02:41:01.586Z,18.7
2018-02-18T02:42:10.861Z,18.69
2018-02-18T02:43:20.086Z,18.69
2018-02-18T02:44:29.070Z,18.65
2018-02-18T02:45:38.322Z,18.72
2018-02-18T02:46:47.330Z,18.76
2018-02-18T02:47:57.110Z,18.73
2018-02-18T02:49:06.352Z,18.75
2018-02-18T02:50:16.118Z,18.7
2018-02-18T02:51:25.601Z,18.65
2018-02-18T02:52:34.555Z,18.73
2018-02-18T02:53:43.236Z,18.75
2018-02-18T02:54:52.767Z,18.72
2018-02-18T02:56:01.974Z,18.72
2018-02-18T02:57:12.012Z,18.73
2018-02-18T02:58:22.073Z,18.66
2018-02-18T02:59:31.305Z,18.72
2018-02-18T03:00:40.773Z,18.66
2018-02-18T03:01:50.014Z,18.7
2018-02-18T03:02:59.238Z,18.58
2018-02-18T03:04:08.477Z,18.75
2018-02-18T03:05:17.719Z,18.65
2018-02-18T03:06:26.718Z,18.62
2018-02-18T03:07:35.427Z,18.72
2018-02-18T03:08:44.120Z,18.58
2018-02-18T03:09:53.621Z,18.67
2018-02-18T03:11:02.604Z,18.58
2018-02-18T03:12:11.846Z,18.62
2018-02-18T03:13:20.796Z,18.62
2018-02-18T03:14:30.010Z,18.65
2018-02-18T03:15:39.005Z,18.67
2018-02-18T03:16:47.713Z,18.62
2018-02-18T03:17:56.925Z,18.65
2018-02-18T03:19:05.625Z,18.69
2018-02-18T03:20:15.107Z,18.67
2018-02-18T03:21:24.070Z,18.62
2018-02-18T03:22:33.048Z,18.69
2018-02-18T03:23:42.296Z,18.69
2018-02-18T03:24:51.269Z,18.65
2018-02-18T03:26:00.472Z,18.65
2018-02-18T03:27:09.820Z,18.63
2018-02-18T03:28:18.995Z,18.55
2018-02-18T03:29:27.697Z,18.65
2018-02-18T03:30:37.183Z,18.62
2018-02-18T03:31:46.236Z,18.58
2018-02-18T03:32:55.193Z,18.65
2018-02-18T03:34:04.186Z,18.58
2018-02-18T03:35:13.137Z,18.58
2018-02-18T03:36:22.406Z,18.54
2018-02-18T03:37:31.667Z,18.55
2018-02-18T03:38:40.605Z,18.57
2018-02-18T03:39:49.568Z,18.54
2018-02-18T03:40:58.259Z,18.52
2018-02-18T03:42:06.962Z,18.54
2018-02-18T03:43:15.904Z,18.58
2018-02-18T03:44:25.127Z,18.52
2018-02-18T03:45:34.647Z,18.55
2018-02-18T03:46:43.860Z,18.54
2018-02-18T03:47:52.563Z,18.48
2018-02-18T03:49:01.769Z,18.57
2018-02-18T03:50:10.994Z,18.6
2018-02-18T03:51:20.482Z,18.6
2018-02-18T03:52:29.947Z,18.47
2018-02-18T03:53:38.919Z,18.55
2018-02-18T03:54:47.849Z,18.47
2018-02-18T03:55:56.552Z,18.51
2018-02-18T03:57:05.250Z,18.51
2018-02-18T03:58:14.481Z,18.51
2018-02-18T03:59:23.428Z,18.47
2018-02-18T04:00:32.150Z,18.48
2018-02-18T04:01:41.366Z,18.42
2018-02-18T04:02:50.832Z,18.45
2018-02-18T04:04:00.049Z,18.45
2018-02-18T04:05:09.033Z,18.5
2018-02-18T04:06:17.980Z,18.47
2018-02-18T04:07:26.918Z,18.44
2018-02-18T04:08:36.145Z,18.41
2018-02-18T04:09:45.105Z,18.41
2018-02-18T04:10:54.566Z,18.45
2018-02-18T04:12:04.328Z,18.47
2018-02-18T04:13:13.545Z,18.48
2018-02-18T04:14:22.560Z,18.45
2018-02-18T04:15:31.740Z,18.44
2018-02-18T04:16:40.728Z,18.45
2018-02-18T04:17:50.411Z,18.48
2018-02-18T04:18:59.901Z,18.45
2018-02-18T04:20:08.884Z,18.47
2018-02-18T04:21:18.120Z,18.42
2018-02-18T04:22:27.077Z,18.45
2018-02-18T04:23:36.034Z,18.37
2018-02-18T04:24:44.726Z,18.47
2018-02-18T04:25:53.415Z,18.44
2018-02-18T04:27:02.889Z,18.42
2018-02-18T04:28:11.876Z,18.42
2018-02-18T04:29:21.409Z,18.44
2018-02-18T04:30:30.405Z,18.5
2018-02-18T04:31:39.087Z,18.47
2018-02-18T04:32:48.033Z,18.42
2018-02-18T04:33:57.259Z,18.48
2018-02-18T04:35:06.502Z,18.5
2018-02-18T04:36:15.746Z,18.42
2018-02-18T04:37:24.697Z,18.44
2018-02-18T04:38:33.653Z,18.41
2018-02-18T04:39:42.382Z,18.44
2018-02-18T04:40:52.162Z,18.48
2018-02-18T04:42:01.436Z,18.42
2018-02-18T04:43:10.912Z,18.39
2018-02-18T04:44:19.876Z,18.42
2018-02-18T04:45:28.875Z,18.45
2018-02-18T04:46:37.861Z,18.41
2018-02-18T04:47:47.112Z,18.42
2018-02-18T04:48:56.326Z,18.44
2018-02-18T04:50:05.556Z,18.42
2018-02-18T04:51:14.512Z,18.45
2018-02-18T04:52:23.560Z,18.44
2018-02-18T04:53:32.618Z,18.44
2018-02-18T04:54:41.566Z,18.35
2018-02-18T04:55:50.526Z,18.39
2018-02-18T04:56:59.732Z,18.42
2018-02-18T04:58:08.967Z,18.39
2018-02-18T04:59:18.476Z,18.41
2018-02-18T05:00:27.433Z,18.36
2018-02-18T05:01:36.932Z,18.47
2018-02-18T05:02:46.199Z,18.35
2018-02-18T05:03:55.682Z,18.37
2018-02-18T05:05:04.623Z,18.36
2018-02-18T05:06:13.832Z,18.42
2018-02-18T05:07:23.337Z,18.39
2018-02-18T05:08:32.534Z,18.36
2018-02-18T05:09:41.789Z,18.39
2018-02-18T05:10:50.758Z,18.41
2018-02-18T05:11:59.980Z,18.42
2018-02-18T05:13:08.699Z,18.33
2018-02-18T05:14:18.182Z,18.3
2018-02-18T05:15:27.199Z,18.41
2018-02-18T05:16:36.694Z,18.27
2018-02-18T05:17:45.369Z,18.33
2018-02-18T05:18:54.322Z,18.32
2018-02-18T05:20:03.267Z,18.39
2018-02-18T05:21:12.302Z,18.42
2018-02-18T05:22:21.249Z,18.35
2018-02-18T05:23:30.475Z,18.33
2018-02-18T05:24:39.457Z,18.33
2018-02-18T05:25:48.405Z,18.36
2018-02-18T05:26:57.109Z,18.3
2018-02-18T05:28:05.834Z,18.33
2018-02-18T05:29:15.575Z,18.39
2018-02-18T05:30:24.790Z,18.32
2018-02-18T05:31:34.016Z,18.36
2018-02-18T05:32:42.993Z,18.33
2018-02-18T05:33:52.243Z,18.26
2018-02-18T05:35:01.471Z,18.35
2018-02-18T05:36:10.768Z,18.32
2018-02-18T05:37:19.840Z,18.36
2018-02-18T05:38:28.516Z,18.36
2018-02-18T05:39:37.980Z,18.26
2018-02-18T05:40:47.195Z,18.27
2018-02-18T05:41:56.470Z,18.29
2018-02-18T05:43:05.711Z,18.36
2018-02-18T05:44:14.476Z,18.29
2018-02-18T05:45:24.008Z,18.36
2018-02-18T05:46:33.248Z,18.3
2018-02-18T05:47:42.454Z,18.25
2018-02-18T05:48:51.415Z,18.32
2018-02-18T05:50:00.365Z,18.32
2018-02-18T05:51:09.316Z,18.32
2018-02-18T05:52:18.275Z,18.25
2018-02-18T05:53:27.228Z,18.29
2018-02-18T05:54:36.202Z,18.32
2018-02-18T05:55:44.898Z,18.32
2018-02-18T05:56:54.402Z,18.27
2018-02-18T05:58:03.351Z,18.3
2018-02-18T05:59:12.583Z,18.32
2018-02-18T06:00:21.531Z,18.33
2018-02-18T06:01:31.025Z,18.23
2018-02-18T06:02:39.759Z,18.35
2018-02-18T06:03:48.711Z,18.29
2018-02-18T06:04:57.932Z,18.32
2018-02-18T06:06:07.704Z,18.23
2018-02-18T06:07:16.425Z,18.23
2018-02-18T06:08:25.662Z,18.33
2018-02-18T06:09:34.640Z,18.2
2018-02-18T06:10:44.152Z,18.2
2018-02-18T06:11:53.640Z,18.18
2018-02-18T06:13:02.370Z,18.18
2018-02-18T06:14:11.332Z,18.15
2018-02-18T06:15:20.797Z,18.21
2018-02-18T06:16:30.560Z,18.17
2018-02-18T06:17:40.030Z,18.17
2018-02-18T06:18:49.276Z,18.18
2018-02-18T06:19:59.016Z,18.11
2018-02-18T06:21:08.228Z,18.15
2018-02-18T06:22:17.708Z,18.2
2018-02-18T06:23:26.935Z,18.15
2018-02-18T06:24:36.203Z,18.18
2018-02-18T06:25:44.909Z,18.17
2018-02-18T06:26:53.872Z,18.2
2018-02-18T06:28:03.088Z,18.14
2018-02-18T06:29:12.315Z,18.17
2018-02-18T06:30:21.001Z,18.15
2018-02-18T06:31:30.510Z,18.18
2018-02-18T06:32:39.737Z,18.1
2018-02-18T06:33:48.728Z,18.21
2018-02-18T06:34:57.765Z,18.18
2018-02-18T06:36:06.972Z,18.17
2018-02-18T06:37:16.511Z,18.2
2018-02-18T06:38:25.795Z,18.17
2018-02-18T06:39:35.281Z,18.18
2018-02-18T06:40:44.521Z,18.17
2018-02-18T06:41:53.459Z,18.18
2018-02-18T06:43:02.420Z,18.2
2018-02-18T06:44:11.660Z,18.14
2018-02-18T06:45:20.365Z,18.2
2018-02-18T06:46:29.827Z,18.21
2018-02-18T06:47:39.137Z,18.21
2018-02-18T06:48:48.360Z,18.21
2018-02-18T06:49:57.306Z,18.2
2018-02-18T06:51:05.987Z,18.21
2018-02-18T06:52:14.680Z,18.25
2018-02-18T06:53:23.410Z,18.27
2018-02-18T06:54:32.082Z,18.23
2018-02-18T06:55:40.784Z,18.21
2018-02-18T06:56:50.033Z,18.29
2018-02-18T06:57:59.504Z,18.29
2018-02-18T06:59:08.213Z,18.26
2018-02-18T07:00:17.422Z,18.25
2018-02-18T07:01:26.647Z,18.21
2018-02-18T07:02:35.595Z,18.3
2018-02-18T07:03:44.819Z,18.32
2018-02-18T07:04:53.803Z,18.27
2018-02-18T07:06:03.541Z,18.29
2018-02-18T07:07:12.512Z,18.26
2018-02-18T07:08:21.460Z,18.3
2018-02-18T07:09:30.156Z,18.21
2018-02-18T07:10:38.895Z,18.23
2018-02-18T07:11:47.838Z,18.29
2018-02-18T07:12:56.569Z,18.3
2018-02-18T07:14:05.503Z,18.23
2018-02-18T07:15:14.450Z,18.33
2018-02-18T07:16:23.668Z,18.3
2018-02-18T07:17:32.368Z,18.25
2018-02-18T07:18:41.642Z,18.26
2018-02-18T07:19:51.161Z,18.35
2018-02-18T07:21:00.673Z,18.27
2018-02-18T07:22:09.657Z,18.29
2018-02-18T07:23:18.639Z,18.27
2018-02-18T07:24:27.589Z,18.33
2018-02-18T07:25:36.838Z,18.25
2018-02-18T07:26:45.787Z,18.27
2018-02-18T07:27:55.064Z,18.33
2018-02-18T07:29:04.557Z,18.26
2018-02-18T07:30:13.504Z,18.35
2018-02-18T07:31:22.731Z,18.32
2018-02-18T07:32:31.439Z,18.29
2018-02-18T07:33:40.164Z,18.27
2018-02-18T07:34:49.377Z,18.27
2018-02-18T07:35:58.607Z,18.32
2018-02-18T07:37:07.810Z,18.32
2018-02-18T07:38:17.119Z,18.33
2018-02-18T07:39:26.131Z,18.32
2018-02-18T07:40:34.832Z,18.26
2018-02-18T07:41:43.864Z,18.29
2018-02-18T07:42:53.079Z,18.26
2018-02-18T07:44:02.075Z,18.26
2018-02-18T07:45:11.576Z,18.29
2018-02-18T07:46:21.101Z,18.33
2018-02-18T07:47:30.592Z,18.36
2018-02-18T07:48:39.838Z,18.27
2018-02-18T07:49:48.521Z,18.33
2018-02-18T07:50:57.482Z,18.33
2018-02-18T07:52:06.708Z,18.33
2018-02-18T07:53:15.659Z,18.33
2018-02-18T07:54:24.858Z,18.33
2018-02-18T07:55:34.104Z,18.37
2018-02-18T07:56:43.038Z,18.36
2018-02-18T07:57:51.741Z,18.33
2018-02-18T07:59:00.955Z,18.37
2018-02-18T08:00:10.444Z,18.35
2018-02-18T08:01:19.707Z,18.37
2018-02-18T08:02:28.421Z,18.37
2018-02-18T08:03:37.672Z,18.36
2018-02-18T08:04:46.601Z,18.41
2018-02-18T08:05:55.808Z,18.39
2018-02-18T08:07:04.512Z,18.33
2018-02-18T08:08:13.204Z,18.35
2018-02-18T08:09:21.906Z,18.45
2018-02-18T08:10:30.872Z,18.45
2018-02-18T08:11:40.112Z,18.44
2018-02-18T08:12:49.346Z,18.52
2018-02-18T08:13:58.035Z,18.51
2018-02-18T08:15:07.550Z,18.57
2018-02-18T08:16:16.543Z,18.63
2018-02-18T08:17:25.232Z,18.67
2018-02-18T08:18:34.721Z,18.7
2018-02-18T08:19:43.476Z,18.87
2018-02-18T08:20:52.323Z,18.78
2018-02-18T08:22:01.335Z,18.9
2018-02-18T08:23:11.332Z,18.94
2018-02-18T08:24:21.409Z,18.95
2018-02-18T08:25:30.970Z,18.95
2018-02-18T08:26:40.767Z,19.06
2018-02-18T08:27:49.755Z,19.06
2018-02-18T08:28:59.315Z,19.16
2018-02-18T08:30:08.820Z,19.19
2018-02-18T08:31:18.624Z,19.23
2018-02-18T08:32:27.626Z,19.25
2018-02-18T08:33:36.583Z,19.28
2018-02-18T08:34:46.040Z,19.36
2018-02-18T08:35:54.725Z,19.48
2018-02-18T08:37:04.032Z,19.43
2018-02-18T08:38:13.177Z,19.43
2018-02-18T08:39:22.165Z,19.56
2018-02-18T08:40:31.812Z,19.55
2018-02-18T08:41:40.891Z,19.59
2018-02-18T08:42:50.106Z,19.61
2018-02-18T08:43:59.196Z,19.65
2018-02-18T08:45:08.491Z,19.68
2018-02-18T08:46:17.969Z,19.66
2018-02-18T08:47:26.925Z,19.65
2018-02-18T08:48:35.621Z,19.77
2018-02-18T08:49:44.860Z,19.76
2018-02-18T08:50:54.345Z,19.91
2018-02-18T08:52:03.074Z,19.83
2018-02-18T08:53:11.795Z,19.88
2018-02-18T08:54:20.754Z,19.94
2018-02-18T08:55:29.730Z,19.94
2018-02-18T08:56:38.699Z,20.01
2018-02-18T08:57:48.200Z,20.08
2018-02-18T08:58:56.923Z,20.08
2018-02-18T09:00:05.924Z,20.24
2018-02-18T09:01:15.420Z,20.26
2018-02-18T09:02:24.970Z,20.26
2018-02-18T09:03:34.203Z,20.36
2018-02-18T09:04:43.430Z,20.41
2018-02-18T09:05:52.162Z,20.36
2018-02-18T09:07:01.125Z,20.48
2018-02-18T09:08:10.628Z,20.51
2018-02-18T09:09:20.105Z,20.54
2018-02-18T09:10:29.076Z,20.66
2018-02-18T09:11:38.334Z,20.72
2018-02-18T09:12:47.095Z,20.73
2018-02-18T09:13:56.048Z,20.79
2018-02-18T09:15:05.802Z,20.77
2018-02-18T09:16:15.022Z,20.92
2018-02-18T09:17:24.073Z,20.97
2018-02-18T09:18:33.067Z,21.04
2018-02-18T09:19:41.796Z,21.16
2018-02-18T09:20:51.014Z,21.32
2018-02-18T09:22:00.768Z,21.37
2018-02-18T09:23:09.480Z,21.44
2018-02-18T09:24:19.230Z,21.52
2018-02-18T09:25:28.758Z,21.61
2018-02-18T09:26:37.460Z,21.68
2018-02-18T09:27:46.716Z,21.77
2018-02-18T09:28:55.956Z,21.77
2018-02-18T09:30:05.500Z,21.72
2018-02-18T09:31:14.995Z,21.77
2018-02-18T09:32:24.531Z,21.8
2018-02-18T09:33:33.488Z,21.82
2018-02-18T09:34:42.802Z,21.92
2018-02-18T09:35:52.352Z,21.96
2018-02-18T09:37:01.897Z,21.94
2018-02-18T09:38:11.410Z,21.92
2018-02-18T09:39:20.879Z,21.98
2018-02-18T09:40:30.367Z,21.98
2018-02-18T09:41:39.590Z,21.94
2018-02-18T09:42:48.544Z,21.99
2018-02-18T09:43:58.019Z,21.96
2018-02-18T09:45:07.503Z,22.05
2018-02-18T09:46:16.194Z,21.99
2018-02-18T09:47:25.689Z,22.07
2018-02-18T09:48:34.929Z,21.96
2018-02-18T09:49:44.129Z,22.03
2018-02-18T09:50:53.358Z,22.03
2018-02-18T09:52:02.361Z,22.09
2018-02-18T09:53:11.873Z,21.99
2018-02-18T09:54:21.342Z,21.82
2018-02-18T09:55:30.836Z,21.54
2018-02-18T09:56:40.048Z,21.24
2018-02-18T09:57:49.613Z,20.92
2018-02-18T09:58:58.913Z,20.7
2018-02-18T10:00:08.146Z,20.36
2018-02-18T10:01:17.386Z,20.11
2018-02-18T10:02:26.063Z,19.81
2018-02-18T10:03:35.313Z,19.43
2018-02-18T10:04:44.533Z,19.22
2018-02-18T10:05:53.478Z,18.92
2018-02-18T10:07:02.945Z,18.65
2018-02-18T10:08:11.928Z,18.45
2018-02-18T10:09:20.899Z,18.18
2018-02-18T10:10:29.627Z,17.93
2018-02-18T10:11:38.571Z,17.79
2018-02-18T10:12:47.811Z,17.62
2018-02-18T10:13:56.887Z,17.43
2018-02-18T10:15:06.132Z,17.28
2018-02-18T10:16:15.400Z,17.18
2018-02-18T10:17:24.170Z,17.01
2018-02-18T10:18:33.392Z,16.98
2018-02-18T10:19:42.389Z,16.75
2018-02-18T10:20:51.611Z,16.75
2018-02-18T10:22:00.917Z,16.52
2018-02-18T10:23:10.216Z,16.56
2018-02-18T10:24:19.539Z,16.28
2018-02-18T10:25:28.938Z,16.24
2018-02-18T10:26:38.178Z,16.11
2018-02-18T10:27:47.044Z,16.02
2018-02-18T10:28:57.684Z,15.96
2018-02-18T10:30:07.578Z,15.89
2018-02-18T10:31:16.801Z,15.75
2018-02-18T10:32:26.082Z,15.64
2018-02-18T10:33:36.088Z,15.56
2018-02-18T10:34:45.315Z,15.51
2018-02-18T10:35:54.714Z,15.5
2018-02-18T10:37:03.440Z,15.32
2018-02-18T10:38:12.749Z,15.25
2018-02-18T10:39:21.796Z,15.2
2018-02-18T10:40:31.087Z,15.07
2018-02-18T10:41:40.102Z,15.07
2018-02-18T10:42:49.318Z,14.95
2018-02-18T10:43:58.271Z,15.01
2018-02-18T10:45:08.473Z,14.91
2018-02-18T10:46:18.166Z,14.91
2018-02-18T10:47:27.670Z,14.72
2018-02-18T10:48:36.647Z,14.84
2018-02-18T10:49:45.897Z,14.72
2018-02-18T10:50:55.726Z,14.69
2018-02-18T10:52:04.686Z,14.64
2018-02-18T10:53:13.658Z,14.64
2018-02-18T10:54:22.741Z,14.51
2018-02-18T10:55:31.710Z,14.46
2018-02-18T10:56:40.940Z,14.39
2018-02-18T10:57:50.657Z,14.35
2018-02-18T10:59:00.203Z,14.4
2018-02-18T11:00:09.714Z,14.25
2018-02-18T11:01:18.838Z,14.25
2018-02-18T11:02:27.539Z,14.27
2018-02-18T11:03:36.494Z,14.25
2018-02-18T11:04:45.823Z,14.21
2018-02-18T11:05:56.094Z,14.27
2018-02-18T11:07:05.587Z,14.18
2018-02-18T11:08:15.140Z,14.15
2018-02-18T11:09:24.394Z,14.22
2018-02-18T11:10:33.684Z,14.18
2018-02-18T11:11:42.679Z,14.18
2018-02-18T11:12:52.491Z,14.12
2018-02-18T11:14:01.693Z,14.14
2018-02-18T11:15:10.656Z,14.1
2018-02-18T11:16:20.162Z,14.14
2018-02-18T11:17:29.112Z,14.12
2018-02-18T11:18:38.128Z,14.07
2018-02-18T11:19:47.400Z,14.03
2018-02-18T11:20:56.892Z,13.97
2018-02-18T11:22:06.437Z,13.95
2018-02-18T11:23:15.162Z,13.91
2018-02-18T11:24:24.176Z,13.87
2018-02-18T11:25:33.212Z,13.84
2018-02-18T11:26:41.897Z,13.87
2018-02-18T11:27:51.134Z,13.87
2018-02-18T11:29:00.657Z,13.88
2018-02-18T11:30:09.372Z,13.85
2018-02-18T11:31:18.606Z,13.81
2018-02-18T11:32:27.577Z,13.92
2018-02-18T11:33:37.130Z,14.12
2018-02-18T11:34:46.342Z,14.28
2018-02-18T11:35:55.636Z,14.37
2018-02-18T11:37:05.195Z,14.64
2018-02-18T11:38:14.202Z,14.72
2018-02-18T11:39:23.213Z,14.96
2018-02-18T11:40:32.207Z,15.25
2018-02-18T11:41:41.194Z,15.31
2018-02-18T11:42:50.165Z,15.65
2018-02-18T11:43:59.650Z,15.75
2018-02-18T11:45:09.390Z,15.96
2018-02-18T11:46:18.916Z,16.04
2018-02-18T11:47:27.624Z,16.28
2018-02-18T11:48:36.868Z,16.43
2018-02-18T11:49:46.116Z,16.64
2018-02-18T11:50:55.083Z,16.75
2018-02-18T11:52:04.321Z,16.93
2018-02-18T11:53:13.031Z,17.07
2018-02-18T11:54:22.590Z,17.22
2018-02-18T11:55:31.591Z,17.28
2018-02-18T11:56:40.544Z,17.4
2018-02-18T11:57:49.821Z,17.58
2018-02-18T11:58:59.351Z,17.75
2018-02-18T12:00:08.598Z,17.86
2018-02-18T12:01:18.088Z,18.02
2018-02-18T12:02:27.105Z,18.1
2018-02-18T12:03:36.339Z,18.15
2018-02-18T12:04:45.603Z,18.18
2018-02-18T12:05:55.270Z,18.26
2018-02-18T12:07:04.304Z,18.39
2018-02-18T12:08:13.287Z,18.51
2018-02-18T12:09:22.263Z,18.58
2018-02-18T12:10:31.280Z,18.67
2018-02-18T12:11:40.240Z,18.66
2018-02-18T12:12:49.216Z,18.76
2018-02-18T12:13:58.705Z,18.91
2018-02-18T12:15:07.715Z,18.95
2018-02-18T12:16:16.465Z,18.94
2018-02-18T12:17:25.476Z,19.08
2018-02-18T12:18:35.516Z,19.08
2018-02-18T12:19:44.795Z,19.16
2018-02-18T12:20:54.282Z,19.31
2018-02-18T12:22:03.275Z,19.26
2018-02-18T12:23:12.491Z,19.26
2018-02-18T12:24:21.976Z,19.37
2018-02-18T12:25:31.228Z,19.41
2018-02-18T12:26:39.903Z,19.47
2018-02-18T12:27:49.121Z,19.44
2018-02-18T12:28:57.854Z,19.5
2018-02-18T12:30:07.078Z,19.55
2018-02-18T12:31:16.045Z,19.55
2018-02-18T12:32:25.267Z,19.56
2018-02-18T12:33:34.261Z,19.61
2018-02-18T12:34:43.746Z,19.62
2018-02-18T12:35:52.689Z,19.59
2018-02-18T12:37:01.943Z,19.62
2018-02-18T12:38:10.899Z,19.69
2018-02-18T12:39:20.215Z,19.62
2018-02-18T12:40:28.902Z,19.68
2018-02-18T12:41:38.153Z,19.59
2018-02-18T12:42:47.116Z,19.58
2018-02-18T12:43:56.114Z,19.63
2018-02-18T12:45:05.314Z,19.62
2018-02-18T12:46:14.075Z,19.63
2018-02-18T12:47:23.335Z,19.65
2018-02-18T12:48:33.070Z,19.59
2018-02-18T12:49:42.068Z,19.65
2018-02-18T12:50:51.315Z,19.58
2018-02-18T12:52:00.544Z,19.61
2018-02-18T12:53:09.778Z,19.61
2018-02-18T12:54:19.287Z,19.58
2018-02-18T12:55:28.263Z,19.54
2018-02-18T12:56:37.198Z,19.59
2018-02-18T12:57:46.259Z,19.61
2018-02-18T12:58:55.217Z,19.62
2018-02-18T13:00:04.174Z,19.56
2018-02-18T13:01:13.678Z,19.55
2018-02-18T13:02:22.384Z,19.56
2018-02-18T13:03:31.875Z,19.55
2018-02-18T13:04:40.845Z,19.51
2018-02-18T13:05:50.842Z,19.55
2018-02-18T13:06:59.800Z,19.46
2018-02-18T13:08:09.359Z,19.51
2018-02-18T13:09:18.348Z,19.44
2018-02-18T13:10:27.053Z,19.48
2018-02-18T13:11:36.276Z,19.41
2018-02-18T13:12:45.221Z,19.46
2018-02-18T13:13:54.176Z,19.48
2018-02-18T13:15:03.125Z,19.5
2018-02-18T13:16:11.815Z,19.41
2018-02-18T13:17:20.759Z,19.41
2018-02-18T13:18:29.706Z,19.37
2018-02-18T13:19:38.917Z,19.44
2018-02-18T13:20:47.598Z,19.36
2018-02-18T13:21:56.822Z,19.46
2018-02-18T13:23:06.115Z,19.41
2018-02-18T13:24:14.826Z,19.36
2018-02-18T13:25:24.064Z,19.36
2018-02-18T13:26:33.032Z,19.4
2018-02-18T13:27:42.254Z,19.37
2018-02-18T13:28:51.484Z,19.37
2018-02-18T13:30:00.196Z,19.32
2018-02-18T13:31:09.153Z,19.33
2018-02-18T13:32:18.691Z,19.41
2018-02-18T13:33:28.032Z,19.37
2018-02-18T13:34:37.273Z,19.33
2018-02-18T13:35:46.290Z,19.36
2018-02-18T13:36:55.260Z,19.32
2018-02-18T13:38:04.496Z,19.26
2018-02-18T13:39:13.718Z,19.41
2018-02-18T13:40:22.700Z,19.29
2018-02-18T13:41:31.669Z,19.37
2018-02-18T13:42:40.640Z,19.4
2018-02-18T13:43:49.603Z,19.36
2018-02-18T13:44:58.584Z,19.32
2018-02-18T13:46:07.826Z,19.28
2018-02-18T13:47:16.790Z,19.29
2018-02-18T13:48:25.486Z,19.25
2018-02-18T13:49:34.462Z,19.23
2018-02-18T13:50:43.946Z,19.26
2018-02-18T13:51:53.455Z,19.28
2018-02-18T13:53:02.420Z,19.29
2018-02-18T13:54:11.650Z,19.25
2018-02-18T13:55:21.146Z,19.21
2018-02-18T13:56:30.127Z,19.23
2018-02-18T13:57:39.357Z,19.25
2018-02-18T13:58:48.928Z,19.28
2018-02-18T13:59:58.152Z,19.29
2018-02-18T14:01:07.671Z,19.28
2018-02-18T14:02:17.189Z,19.31
2018-02-18T14:03:26.987Z,19.31
2018-02-18T14:04:36.247Z,19.25
2018-02-18T14:05:45.202Z,19.25
2018-02-18T14:06:54.426Z,19.26
2018-02-18T14:08:03.449Z,19.32
2018-02-18T14:09:12.983Z,19.29
2018-02-18T14:10:21.721Z,19.25
2018-02-18T14:11:31.286Z,19.22
2018-02-18T14:12:40.012Z,19.32
2018-02-18T14:13:49.823Z,19.4
2018-02-18T14:14:59.115Z,19.36
2018-02-18T14:16:08.143Z,19.4
2018-02-18T14:17:17.460Z,19.32
2018-02-18T14:18:26.453Z,19.37
2018-02-18T14:19:35.482Z,19.41
2018-02-18T14:20:44.728Z,19.4
2018-02-18T14:21:53.977Z,19.4
2018-02-18T14:23:03.071Z,19.48
2018-02-18T14:24:12.375Z,19.39
2018-02-18T14:25:21.652Z,19.5
2018-02-18T14:26:31.216Z,19.47
2018-02-18T14:27:40.476Z,19.51
2018-02-18T14:28:49.493Z,19.46
2018-02-18T14:29:58.895Z,19.43
2018-02-18T14:31:08.215Z,19.43
2018-02-18T14:32:17.231Z,19.54
2018-02-18T14:33:26.773Z,19.5
2018-02-18T14:34:36.052Z,19.55
2018-02-18T14:35:45.869Z,19.55
2018-02-18T14:36:54.931Z,19.56
2018-02-18T14:38:04.653Z,19.54
2018-02-18T14:39:13.360Z,19.56
2018-02-18T14:40:22.880Z,19.55
2018-02-18T14:41:31.912Z,19.55
2018-02-18T14:42:40.923Z,19.59
2018-02-18T14:43:49.723Z,19.59
2018-02-18T14:44:59.527Z,19.59
2018-02-18T14:46:08.529Z,19.59
2018-02-18T14:47:17.237Z,19.59
2018-02-18T14:48:26.800Z,19.65
2018-02-18T14:49:35.786Z,19.68
2018-02-18T14:50:44.787Z,19.58
2018-02-18T14:51:53.476Z,19.62
2018-02-18T14:53:02.420Z,19.59
2018-02-18T14:54:11.195Z,19.58